sensor_id;sensor_type;location;lat;lon;timestamp;P1;durP1;ratioP1;P2;durP2;ratioP2
39880;SDS011;25554;44.954;10.068;2023-07-30T00:00:21;4.25;;;2.00;;
39880;SDS011;25554;44.954;10.068;2023-07-30T00:02:47;5.97;;;2.05;;
39880;SDS011;25554;44.954;10.068;2023-07-30T00:05:14;4.60;;;1.90;;
39880;SDS011;25554;44.954;10.068;2023-07-30T00:07:41;3.83;;;1.33;;
39880;SDS011;25554;44.954;10.068;2023-07-30T00:10:07;3.72;;;2.15;;
39880;SDS011;25554;44.954;10.068;2023-07-30T00:12:34;1.67;;;1.48;;
39880;SDS011;25554;44.954;10.068;2023-07-30T00:15:00;3.47;;;1.50;;
39880;SDS011;25554;44.954;10.068;2023-07-30T00:17:27;6.78;;;1.85;;
39880;SDS011;25554;44.954;10.068;2023-07-30T00:19:54;2.08;;;1.33;;
39880;SDS011;25554;44.954;10.068;2023-07-30T00:24:46;2.72;;;1.35;;
39880;SDS011;25554;44.954;10.068;2023-07-30T00:29:39;2.17;;;1.30;;
39880;SDS011;25554;44.954;10.068;2023-07-30T00:32:06;5.82;;;2.25;;
39880;SDS011;25554;44.954;10.068;2023-07-30T00:34:32;6.43;;;1.92;;
39880;SDS011;25554;44.954;10.068;2023-07-30T00:36:59;8.00;;;1.92;;
39880;SDS011;25554;44.954;10.068;2023-07-30T00:39:25;3.17;;;1.95;;
39880;SDS011;25554;44.954;10.068;2023-07-30T00:41:52;3.47;;;1.65;;
39880;SDS011;25554;44.954;10.068;2023-07-30T00:44:19;4.18;;;1.75;;
39880;SDS011;25554;44.954;10.068;2023-07-30T00:49:11;2.85;;;2.42;;
39880;SDS011;25554;44.954;10.068;2023-07-30T00:51:39;2.50;;;2.03;;
39880;SDS011;25554;44.954;10.068;2023-07-30T00:54:06;2.35;;;2.08;;
39880;SDS011;25554;44.954;10.068;2023-07-30T00:56:33;2.88;;;2.08;;
39880;SDS011;25554;44.954;10.068;2023-07-30T00:59:00;2.55;;;1.80;;
39880;SDS011;25554;44.954;10.068;2023-07-30T01:01:27;2.33;;;1.95;;
39880;SDS011;25554;44.954;10.068;2023-07-30T01:03:54;2.28;;;1.80;;
39880;SDS011;25554;44.954;10.068;2023-07-30T01:06:20;5.85;;;1.88;;
39880;SDS011;25554;44.954;10.068;2023-07-30T01:08:47;2.85;;;1.70;;
39880;SDS011;25554;44.954;10.068;2023-07-30T01:11:14;1.55;;;1.30;;
39880;SDS011;25554;44.954;10.068;2023-07-30T01:13:41;2.53;;;1.48;;
39880;SDS011;25554;44.954;10.068;2023-07-30T01:16:08;2.80;;;1.40;;
39880;SDS011;25554;44.954;10.068;2023-07-30T01:18:35;2.08;;;1.67;;
39880;SDS011;25554;44.954;10.068;2023-07-30T01:21:02;2.45;;;1.20;;
39880;SDS011;25554;44.954;10.068;2023-07-30T01:23:28;3.72;;;1.30;;
39880;SDS011;25554;44.954;10.068;2023-07-30T01:26:07;2.00;;;1.55;;
39880;SDS011;25554;44.954;10.068;2023-07-30T01:28:39;2.45;;;1.45;;
39880;SDS011;25554;44.954;10.068;2023-07-30T01:31:12;2.97;;;1.60;;
39880;SDS011;25554;44.954;10.068;2023-07-30T01:33:42;2.92;;;2.00;;
39880;SDS011;25554;44.954;10.068;2023-07-30T01:36:09;1.48;;;1.35;;
39880;SDS011;25554;44.954;10.068;2023-07-30T01:38:40;2.53;;;1.50;;
39880;SDS011;25554;44.954;10.068;2023-07-30T01:41:08;2.97;;;1.58;;
39880;SDS011;25554;44.954;10.068;2023-07-30T01:43:36;3.00;;;1.73;;
39880;SDS011;25554;44.954;10.068;2023-07-30T01:46:02;3.13;;;1.92;;
39880;SDS011;25554;44.954;10.068;2023-07-30T01:48:29;2.30;;;1.80;;
39880;SDS011;25554;44.954;10.068;2023-07-30T01:50:56;3.47;;;1.90;;
39880;SDS011;25554;44.954;10.068;2023-07-30T01:55:48;1.63;;;1.52;;
39880;SDS011;25554;44.954;10.068;2023-07-30T02:00:41;3.63;;;1.90;;
39880;SDS011;25554;44.954;10.068;2023-07-30T02:05:33;2.22;;;2.00;;
39880;SDS011;25554;44.954;10.068;2023-07-30T02:08:00;5.10;;;2.50;;
39880;SDS011;25554;44.954;10.068;2023-07-30T02:12:53;3.53;;;2.50;;
39880;SDS011;25554;44.954;10.068;2023-07-30T02:15:20;5.03;;;2.75;;
39880;SDS011;25554;44.954;10.068;2023-07-30T02:20:12;4.30;;;2.40;;
39880;SDS011;25554;44.954;10.068;2023-07-30T02:22:39;2.42;;;2.13;;
39880;SDS011;25554;44.954;10.068;2023-07-30T02:25:05;4.70;;;2.22;;
39880;SDS011;25554;44.954;10.068;2023-07-30T02:27:32;3.92;;;2.20;;
39880;SDS011;25554;44.954;10.068;2023-07-30T02:32:25;3.00;;;1.90;;
39880;SDS011;25554;44.954;10.068;2023-07-30T02:37:17;3.42;;;2.53;;
39880;SDS011;25554;44.954;10.068;2023-07-30T02:39:44;3.95;;;2.25;;
39880;SDS011;25554;44.954;10.068;2023-07-30T02:44:36;3.67;;;2.92;;
39880;SDS011;25554;44.954;10.068;2023-07-30T02:49:29;7.88;;;2.65;;
39880;SDS011;25554;44.954;10.068;2023-07-30T02:51:56;3.78;;;2.60;;
39880;SDS011;25554;44.954;10.068;2023-07-30T02:56:48;4.57;;;2.50;;
39880;SDS011;25554;44.954;10.068;2023-07-30T03:01:41;4.22;;;3.05;;
39880;SDS011;25554;44.954;10.068;2023-07-30T03:04:07;4.20;;;2.53;;
39880;SDS011;25554;44.954;10.068;2023-07-30T03:06:34;4.93;;;2.55;;
39880;SDS011;25554;44.954;10.068;2023-07-30T03:09:01;4.68;;;2.33;;
39880;SDS011;25554;44.954;10.068;2023-07-30T03:11:28;2.85;;;2.30;;
39880;SDS011;25554;44.954;10.068;2023-07-30T03:13:54;3.42;;;2.63;;
39880;SDS011;25554;44.954;10.068;2023-07-30T03:16:21;3.65;;;2.63;;
39880;SDS011;25554;44.954;10.068;2023-07-30T03:18:48;3.88;;;2.88;;
39880;SDS011;25554;44.954;10.068;2023-07-30T03:21:14;3.58;;;2.95;;
39880;SDS011;25554;44.954;10.068;2023-07-30T03:23:41;4.35;;;3.05;;
39880;SDS011;25554;44.954;10.068;2023-07-30T03:26:10;5.50;;;3.65;;
39880;SDS011;25554;44.954;10.068;2023-07-30T03:28:36;4.68;;;3.00;;
39880;SDS011;25554;44.954;10.068;2023-07-30T03:31:03;4.93;;;3.40;;
39880;SDS011;25554;44.954;10.068;2023-07-30T03:35:56;5.65;;;3.13;;
39880;SDS011;25554;44.954;10.068;2023-07-30T03:40:49;8.70;;;3.42;;
39880;SDS011;25554;44.954;10.068;2023-07-30T03:43:15;8.25;;;3.85;;
39880;SDS011;25554;44.954;10.068;2023-07-30T03:45:43;7.80;;;3.42;;
39880;SDS011;25554;44.954;10.068;2023-07-30T03:50:35;5.07;;;3.45;;
39880;SDS011;25554;44.954;10.068;2023-07-30T03:53:02;3.20;;;2.90;;
39880;SDS011;25554;44.954;10.068;2023-07-30T03:57:55;5.73;;;3.90;;
39880;SDS011;25554;44.954;10.068;2023-07-30T04:00:23;5.15;;;3.75;;
39880;SDS011;25554;44.954;10.068;2023-07-30T04:02:50;7.90;;;4.10;;
39880;SDS011;25554;44.954;10.068;2023-07-30T04:05:16;7.43;;;4.45;;
39880;SDS011;25554;44.954;10.068;2023-07-30T04:07:43;9.05;;;4.70;;
39880;SDS011;25554;44.954;10.068;2023-07-30T04:10:09;7.07;;;4.50;;
39880;SDS011;25554;44.954;10.068;2023-07-30T04:12:36;7.35;;;4.72;;
39880;SDS011;25554;44.954;10.068;2023-07-30T04:15:03;5.63;;;4.90;;
39880;SDS011;25554;44.954;10.068;2023-07-30T04:17:29;5.88;;;5.28;;
39880;SDS011;25554;44.954;10.068;2023-07-30T04:22:22;6.82;;;5.38;;
39880;SDS011;25554;44.954;10.068;2023-07-30T04:24:49;5.95;;;5.35;;
39880;SDS011;25554;44.954;10.068;2023-07-30T04:27:15;6.82;;;5.97;;
39880;SDS011;25554;44.954;10.068;2023-07-30T04:32:08;6.80;;;5.72;;
39880;SDS011;25554;44.954;10.068;2023-07-30T04:34:35;9.30;;;5.32;;
39880;SDS011;25554;44.954;10.068;2023-07-30T04:37:01;6.43;;;5.50;;
39880;SDS011;25554;44.954;10.068;2023-07-30T04:39:29;10.18;;;5.55;;
39880;SDS011;25554;44.954;10.068;2023-07-30T04:41:57;6.18;;;5.20;;
39880;SDS011;25554;44.954;10.068;2023-07-30T04:44:25;6.97;;;4.88;;
39880;SDS011;25554;44.954;10.068;2023-07-30T04:46:54;7.75;;;4.95;;
39880;SDS011;25554;44.954;10.068;2023-07-30T04:49:20;5.55;;;5.00;;
39880;SDS011;25554;44.954;10.068;2023-07-30T04:51:47;6.97;;;5.00;;
39880;SDS011;25554;44.954;10.068;2023-07-30T04:54:15;5.47;;;4.90;;
39880;SDS011;25554;44.954;10.068;2023-07-30T04:56:42;6.85;;;5.05;;
39880;SDS011;25554;44.954;10.068;2023-07-30T05:01:34;6.10;;;5.28;;
39880;SDS011;25554;44.954;10.068;2023-07-30T05:06:27;5.75;;;5.10;;
39880;SDS011;25554;44.954;10.068;2023-07-30T05:08:54;8.40;;;4.97;;
39880;SDS011;25554;44.954;10.068;2023-07-30T05:13:46;7.43;;;5.68;;
39880;SDS011;25554;44.954;10.068;2023-07-30T05:16:13;8.40;;;5.72;;
39880;SDS011;25554;44.954;10.068;2023-07-30T05:18:39;6.57;;;4.72;;
39880;SDS011;25554;44.954;10.068;2023-07-30T05:23:32;7.50;;;4.85;;
39880;SDS011;25554;44.954;10.068;2023-07-30T05:25:58;6.50;;;4.60;;
39880;SDS011;25554;44.954;10.068;2023-07-30T05:30:51;6.38;;;4.88;;
39880;SDS011;25554;44.954;10.068;2023-07-30T05:35:44;9.40;;;6.22;;
39880;SDS011;25554;44.954;10.068;2023-07-30T05:38:11;9.38;;;5.63;;
39880;SDS011;25554;44.954;10.068;2023-07-30T05:43:03;7.63;;;5.95;;
39880;SDS011;25554;44.954;10.068;2023-07-30T05:47:56;9.23;;;4.15;;
39880;SDS011;25554;44.954;10.068;2023-07-30T05:52:48;4.72;;;3.42;;
39880;SDS011;25554;44.954;10.068;2023-07-30T05:55:15;5.28;;;3.95;;
39880;SDS011;25554;44.954;10.068;2023-07-30T05:57:42;3.88;;;3.25;;
39880;SDS011;25554;44.954;10.068;2023-07-30T06:00:09;4.18;;;3.38;;
39880;SDS011;25554;44.954;10.068;2023-07-30T06:02:38;5.20;;;3.58;;
39880;SDS011;25554;44.954;10.068;2023-07-30T06:05:05;4.28;;;2.85;;
39880;SDS011;25554;44.954;10.068;2023-07-30T06:07:31;4.22;;;3.53;;
39880;SDS011;25554;44.954;10.068;2023-07-30T06:09:58;5.00;;;3.30;;
39880;SDS011;25554;44.954;10.068;2023-07-30T06:12:25;5.53;;;3.72;;
39880;SDS011;25554;44.954;10.068;2023-07-30T06:14:51;5.82;;;3.13;;
39880;SDS011;25554;44.954;10.068;2023-07-30T06:17:18;6.95;;;3.67;;
39880;SDS011;25554;44.954;10.068;2023-07-30T06:19:44;4.15;;;3.20;;
39880;SDS011;25554;44.954;10.068;2023-07-30T06:22:11;4.57;;;3.60;;
39880;SDS011;25554;44.954;10.068;2023-07-30T06:24:37;4.55;;;3.60;;
39880;SDS011;25554;44.954;10.068;2023-07-30T06:27:04;4.13;;;3.20;;
39880;SDS011;25554;44.954;10.068;2023-07-30T06:29:31;7.28;;;3.53;;
39880;SDS011;25554;44.954;10.068;2023-07-30T06:31:57;4.38;;;2.80;;
39880;SDS011;25554;44.954;10.068;2023-07-30T06:34:24;3.35;;;2.80;;
39880;SDS011;25554;44.954;10.068;2023-07-30T06:36:50;3.80;;;2.70;;
39880;SDS011;25554;44.954;10.068;2023-07-30T06:39:17;4.32;;;2.42;;
39880;SDS011;25554;44.954;10.068;2023-07-30T06:44:11;3.25;;;2.30;;
39880;SDS011;25554;44.954;10.068;2023-07-30T06:46:37;4.78;;;1.90;;
39880;SDS011;25554;44.954;10.068;2023-07-30T06:49:03;2.33;;;2.13;;
39880;SDS011;25554;44.954;10.068;2023-07-30T06:51:30;3.08;;;1.92;;
39880;SDS011;25554;44.954;10.068;2023-07-30T06:53:57;3.92;;;2.38;;
39880;SDS011;25554;44.954;10.068;2023-07-30T06:56:23;3.03;;;2.20;;
39880;SDS011;25554;44.954;10.068;2023-07-30T06:58:50;2.55;;;2.30;;
39880;SDS011;25554;44.954;10.068;2023-07-30T07:01:16;4.30;;;2.63;;
39880;SDS011;25554;44.954;10.068;2023-07-30T07:03:43;3.17;;;2.40;;
39880;SDS011;25554;44.954;10.068;2023-07-30T07:06:09;3.85;;;2.17;;
39880;SDS011;25554;44.954;10.068;2023-07-30T07:08:36;2.40;;;2.20;;
39880;SDS011;25554;44.954;10.068;2023-07-30T07:11:02;3.28;;;2.35;;
39880;SDS011;25554;44.954;10.068;2023-07-30T07:13:29;3.58;;;2.10;;
39880;SDS011;25554;44.954;10.068;2023-07-30T07:15:55;2.50;;;2.20;;
39880;SDS011;25554;44.954;10.068;2023-07-30T07:18:22;3.67;;;2.40;;
39880;SDS011;25554;44.954;10.068;2023-07-30T07:20:48;5.15;;;2.65;;
39880;SDS011;25554;44.954;10.068;2023-07-30T07:23:15;3.83;;;2.60;;
39880;SDS011;25554;44.954;10.068;2023-07-30T07:25:41;3.08;;;2.50;;
39880;SDS011;25554;44.954;10.068;2023-07-30T07:28:09;5.35;;;3.00;;
39880;SDS011;25554;44.954;10.068;2023-07-30T07:30:36;2.70;;;2.38;;
39880;SDS011;25554;44.954;10.068;2023-07-30T07:33:03;3.28;;;2.50;;
39880;SDS011;25554;44.954;10.068;2023-07-30T07:35:31;4.65;;;2.65;;
39880;SDS011;25554;44.954;10.068;2023-07-30T07:37:58;4.93;;;2.85;;
39880;SDS011;25554;44.954;10.068;2023-07-30T07:40:24;4.20;;;3.10;;
39880;SDS011;25554;44.954;10.068;2023-07-30T07:42:51;4.15;;;3.20;;
39880;SDS011;25554;44.954;10.068;2023-07-30T07:45:17;4.45;;;3.10;;
39880;SDS011;25554;44.954;10.068;2023-07-30T07:47:44;7.03;;;3.45;;
39880;SDS011;25554;44.954;10.068;2023-07-30T07:50:10;3.45;;;3.15;;
39880;SDS011;25554;44.954;10.068;2023-07-30T07:52:37;4.35;;;3.10;;
39880;SDS011;25554;44.954;10.068;2023-07-30T07:55:04;6.97;;;3.90;;
39880;SDS011;25554;44.954;10.068;2023-07-30T07:57:30;4.40;;;3.53;;
39880;SDS011;25554;44.954;10.068;2023-07-30T07:59:57;5.53;;;3.25;;
39880;SDS011;25554;44.954;10.068;2023-07-30T08:02:24;4.63;;;3.40;;
39880;SDS011;25554;44.954;10.068;2023-07-30T08:04:50;3.55;;;3.05;;
39880;SDS011;25554;44.954;10.068;2023-07-30T08:07:17;5.63;;;3.78;;
39880;SDS011;25554;44.954;10.068;2023-07-30T08:09:43;5.10;;;3.25;;
39880;SDS011;25554;44.954;10.068;2023-07-30T08:12:12;3.58;;;2.88;;
39880;SDS011;25554;44.954;10.068;2023-07-30T08:14:39;5.10;;;3.58;;
39880;SDS011;25554;44.954;10.068;2023-07-30T08:17:06;5.10;;;3.42;;
39880;SDS011;25554;44.954;10.068;2023-07-30T08:19:32;7.05;;;3.70;;
39880;SDS011;25554;44.954;10.068;2023-07-30T08:21:59;5.80;;;3.40;;
39880;SDS011;25554;44.954;10.068;2023-07-30T08:24:25;5.18;;;4.03;;
39880;SDS011;25554;44.954;10.068;2023-07-30T08:26:52;4.80;;;3.85;;
39880;SDS011;25554;44.954;10.068;2023-07-30T08:29:18;6.65;;;4.05;;
39880;SDS011;25554;44.954;10.068;2023-07-30T08:31:45;5.70;;;3.58;;
39880;SDS011;25554;44.954;10.068;2023-07-30T08:34:13;4.35;;;3.63;;
39880;SDS011;25554;44.954;10.068;2023-07-30T08:36:39;4.35;;;3.60;;
39880;SDS011;25554;44.954;10.068;2023-07-30T08:39:06;4.35;;;3.90;;
39880;SDS011;25554;44.954;10.068;2023-07-30T08:41:32;5.80;;;4.38;;
39880;SDS011;25554;44.954;10.068;2023-07-30T08:43:59;12.52;;;7.25;;
39880;SDS011;25554;44.954;10.068;2023-07-30T08:46:26;30.58;;;13.80;;
39880;SDS011;25554;44.954;10.068;2023-07-30T08:48:53;7.15;;;4.72;;
39880;SDS011;25554;44.954;10.068;2023-07-30T08:51:21;5.22;;;4.55;;
39880;SDS011;25554;44.954;10.068;2023-07-30T08:53:48;4.80;;;4.25;;
39880;SDS011;25554;44.954;10.068;2023-07-30T08:56:14;8.13;;;4.03;;
39880;SDS011;25554;44.954;10.068;2023-07-30T08:58:41;4.43;;;3.95;;
39880;SDS011;25554;44.954;10.068;2023-07-30T09:01:09;6.13;;;4.15;;
39880;SDS011;25554;44.954;10.068;2023-07-30T09:03:38;7.00;;;4.10;;
39880;SDS011;25554;44.954;10.068;2023-07-30T09:06:05;8.93;;;4.32;;
39880;SDS011;25554;44.954;10.068;2023-07-30T09:08:32;8.27;;;4.22;;
39880;SDS011;25554;44.954;10.068;2023-07-30T09:11:09;6.35;;;3.80;;
39880;SDS011;25554;44.954;10.068;2023-07-30T09:13:37;6.93;;;4.53;;
39880;SDS011;25554;44.954;10.068;2023-07-30T09:16:07;6.95;;;5.03;;
39880;SDS011;25554;44.954;10.068;2023-07-30T09:18:39;6.53;;;4.72;;
39880;SDS011;25554;44.954;10.068;2023-07-30T09:21:10;5.40;;;4.45;;
39880;SDS011;25554;44.954;10.068;2023-07-30T09:23:43;7.20;;;4.32;;
39880;SDS011;25554;44.954;10.068;2023-07-30T09:26:13;6.32;;;4.28;;
39880;SDS011;25554;44.954;10.068;2023-07-30T09:28:43;7.93;;;4.40;;
39880;SDS011;25554;44.954;10.068;2023-07-30T09:31:10;4.85;;;3.55;;
39880;SDS011;25554;44.954;10.068;2023-07-30T09:33:40;15.30;;;11.63;;
39880;SDS011;25554;44.954;10.068;2023-07-30T09:36:07;14.05;;;6.32;;
39880;SDS011;25554;44.954;10.068;2023-07-30T09:38:40;7.45;;;5.68;;
39880;SDS011;25554;44.954;10.068;2023-07-30T09:41:08;7.78;;;4.80;;
39880;SDS011;25554;44.954;10.068;2023-07-30T09:43:36;6.35;;;4.45;;
39880;SDS011;25554;44.954;10.068;2023-07-30T09:46:03;7.43;;;3.90;;
39880;SDS011;25554;44.954;10.068;2023-07-30T09:48:33;7.95;;;4.75;;
39880;SDS011;25554;44.954;10.068;2023-07-30T09:51:04;6.00;;;4.32;;
39880;SDS011;25554;44.954;10.068;2023-07-30T09:53:32;8.05;;;4.28;;
39880;SDS011;25554;44.954;10.068;2023-07-30T09:56:03;5.13;;;4.45;;
39880;SDS011;25554;44.954;10.068;2023-07-30T09:58:31;8.93;;;4.53;;
39880;SDS011;25554;44.954;10.068;2023-07-30T10:00:58;7.38;;;4.60;;
39880;SDS011;25554;44.954;10.068;2023-07-30T10:03:26;5.80;;;4.40;;
39880;SDS011;25554;44.954;10.068;2023-07-30T10:05:57;8.10;;;4.60;;
39880;SDS011;25554;44.954;10.068;2023-07-30T10:08:28;6.20;;;4.60;;
39880;SDS011;25554;44.954;10.068;2023-07-30T10:10:57;6.82;;;4.82;;
39880;SDS011;25554;44.954;10.068;2023-07-30T10:13:25;5.30;;;4.57;;
39880;SDS011;25554;44.954;10.068;2023-07-30T10:15:52;7.07;;;4.53;;
39880;SDS011;25554;44.954;10.068;2023-07-30T10:18:19;5.00;;;4.25;;
39880;SDS011;25554;44.954;10.068;2023-07-30T10:20:53;6.63;;;4.53;;
39880;SDS011;25554;44.954;10.068;2023-07-30T10:23:20;4.22;;;3.63;;
39880;SDS011;25554;44.954;10.068;2023-07-30T10:25:47;5.85;;;3.83;;
39880;SDS011;25554;44.954;10.068;2023-07-30T10:28:32;6.15;;;4.30;;
39880;SDS011;25554;44.954;10.068;2023-07-30T10:31:00;5.05;;;4.15;;
39880;SDS011;25554;44.954;10.068;2023-07-30T10:33:46;7.57;;;4.68;;
39880;SDS011;25554;44.954;10.068;2023-07-30T10:36:18;7.32;;;3.70;;
39880;SDS011;25554;44.954;10.068;2023-07-30T10:38:56;5.53;;;3.72;;
39880;SDS011;25554;44.954;10.068;2023-07-30T10:41:23;5.72;;;4.03;;
39880;SDS011;25554;44.954;10.068;2023-07-30T10:43:50;5.63;;;3.90;;
39880;SDS011;25554;44.954;10.068;2023-07-30T10:46:17;5.53;;;4.13;;
39880;SDS011;25554;44.954;10.068;2023-07-30T10:48:45;5.00;;;4.07;;
39880;SDS011;25554;44.954;10.068;2023-07-30T10:51:17;4.22;;;3.83;;
39880;SDS011;25554;44.954;10.068;2023-07-30T10:53:44;5.22;;;3.53;;
39880;SDS011;25554;44.954;10.068;2023-07-30T10:56:11;5.07;;;4.00;;
39880;SDS011;25554;44.954;10.068;2023-07-30T10:58:38;5.35;;;4.18;;
39880;SDS011;25554;44.954;10.068;2023-07-30T11:01:06;5.97;;;4.07;;
39880;SDS011;25554;44.954;10.068;2023-07-30T11:03:33;5.55;;;3.90;;
39880;SDS011;25554;44.954;10.068;2023-07-30T11:06:01;3.88;;;3.50;;
39880;SDS011;25554;44.954;10.068;2023-07-30T11:11:09;9.70;;;4.43;;
39880;SDS011;25554;44.954;10.068;2023-07-30T11:13:39;7.50;;;3.85;;
39880;SDS011;25554;44.954;10.068;2023-07-30T11:16:08;5.55;;;4.35;;
39880;SDS011;25554;44.954;10.068;2023-07-30T11:18:36;4.53;;;3.55;;
39880;SDS011;25554;44.954;10.068;2023-07-30T11:21:06;5.50;;;4.25;;
39880;SDS011;25554;44.954;10.068;2023-07-30T11:23:34;4.40;;;4.00;;
39880;SDS011;25554;44.954;10.068;2023-07-30T11:26:02;5.70;;;4.22;;
39880;SDS011;25554;44.954;10.068;2023-07-30T11:28:31;5.78;;;3.88;;
39880;SDS011;25554;44.954;10.068;2023-07-30T11:30:58;6.15;;;4.18;;
39880;SDS011;25554;44.954;10.068;2023-07-30T11:33:29;4.68;;;3.78;;
39880;SDS011;25554;44.954;10.068;2023-07-30T11:35:56;7.22;;;3.80;;
39880;SDS011;25554;44.954;10.068;2023-07-30T11:38:23;7.75;;;3.72;;
39880;SDS011;25554;44.954;10.068;2023-07-30T11:40:55;4.80;;;3.55;;
39880;SDS011;25554;44.954;10.068;2023-07-30T11:43:22;5.93;;;4.35;;
39880;SDS011;25554;44.954;10.068;2023-07-30T11:45:49;5.80;;;3.80;;
39880;SDS011;25554;44.954;10.068;2023-07-30T11:48:31;6.55;;;3.75;;
39880;SDS011;25554;44.954;10.068;2023-07-30T11:50:57;4.25;;;3.38;;
39880;SDS011;25554;44.954;10.068;2023-07-30T11:53:43;6.00;;;3.80;;
39880;SDS011;25554;44.954;10.068;2023-07-30T11:56:18;5.28;;;3.80;;
39880;SDS011;25554;44.954;10.068;2023-07-30T11:58:48;6.38;;;3.30;;
39880;SDS011;25554;44.954;10.068;2023-07-30T12:01:15;4.45;;;3.42;;
39880;SDS011;25554;44.954;10.068;2023-07-30T12:03:42;4.82;;;3.35;;
39880;SDS011;25554;44.954;10.068;2023-07-30T12:06:09;5.20;;;4.22;;
39880;SDS011;25554;44.954;10.068;2023-07-30T12:08:36;3.75;;;3.35;;
39880;SDS011;25554;44.954;10.068;2023-07-30T12:11:07;4.55;;;3.55;;
39880;SDS011;25554;44.954;10.068;2023-07-30T12:13:41;5.22;;;3.20;;
39880;SDS011;25554;44.954;10.068;2023-07-30T12:18:38;5.35;;;3.67;;
39880;SDS011;25554;44.954;10.068;2023-07-30T12:21:05;3.97;;;3.53;;
39880;SDS011;25554;44.954;10.068;2023-07-30T12:23:37;3.63;;;3.30;;
39880;SDS011;25554;44.954;10.068;2023-07-30T12:26:04;3.78;;;3.38;;
39880;SDS011;25554;44.954;10.068;2023-07-30T12:28:31;4.65;;;3.38;;
39880;SDS011;25554;44.954;10.068;2023-07-30T12:30:58;6.53;;;3.75;;
39880;SDS011;25554;44.954;10.068;2023-07-30T12:33:25;5.38;;;4.00;;
39880;SDS011;25554;44.954;10.068;2023-07-30T12:35:51;4.60;;;3.53;;
39880;SDS011;25554;44.954;10.068;2023-07-30T12:38:18;3.90;;;3.50;;
39880;SDS011;25554;44.954;10.068;2023-07-30T12:40:45;6.18;;;3.60;;
39880;SDS011;25554;44.954;10.068;2023-07-30T12:43:11;6.00;;;3.58;;
39880;SDS011;25554;44.954;10.068;2023-07-30T12:45:38;4.72;;;3.38;;
39880;SDS011;25554;44.954;10.068;2023-07-30T12:48:05;4.78;;;3.63;;
39880;SDS011;25554;44.954;10.068;2023-07-30T12:50:33;3.90;;;3.13;;
39880;SDS011;25554;44.954;10.068;2023-07-30T12:53:00;4.70;;;3.65;;
39880;SDS011;25554;44.954;10.068;2023-07-30T12:55:26;5.60;;;3.60;;
39880;SDS011;25554;44.954;10.068;2023-07-30T12:57:53;5.97;;;3.63;;
39880;SDS011;25554;44.954;10.068;2023-07-30T13:00:19;3.85;;;3.17;;
39880;SDS011;25554;44.954;10.068;2023-07-30T13:02:46;3.88;;;3.47;;
39880;SDS011;25554;44.954;10.068;2023-07-30T13:05:12;7.32;;;3.72;;
39880;SDS011;25554;44.954;10.068;2023-07-30T13:07:41;4.10;;;3.50;;
39880;SDS011;25554;44.954;10.068;2023-07-30T13:10:08;11.30;;;7.57;;
39880;SDS011;25554;44.954;10.068;2023-07-30T13:12:35;4.90;;;3.83;;
39880;SDS011;25554;44.954;10.068;2023-07-30T13:15:02;4.18;;;3.60;;
39880;SDS011;25554;44.954;10.068;2023-07-30T13:17:29;4.15;;;3.22;;
39880;SDS011;25554;44.954;10.068;2023-07-30T13:19:55;3.70;;;3.40;;
39880;SDS011;25554;44.954;10.068;2023-07-30T13:22:22;3.58;;;3.17;;
39880;SDS011;25554;44.954;10.068;2023-07-30T13:24:49;4.32;;;3.78;;
39880;SDS011;25554;44.954;10.068;2023-07-30T13:27:16;5.93;;;3.45;;
39880;SDS011;25554;44.954;10.068;2023-07-30T13:29:42;3.47;;;3.03;;
39880;SDS011;25554;44.954;10.068;2023-07-30T13:32:09;3.92;;;3.20;;
39880;SDS011;25554;44.954;10.068;2023-07-30T13:34:35;7.10;;;3.55;;
39880;SDS011;25554;44.954;10.068;2023-07-30T13:37:02;4.40;;;3.33;;
39880;SDS011;25554;44.954;10.068;2023-07-30T13:39:29;3.70;;;3.40;;
39880;SDS011;25554;44.954;10.068;2023-07-30T13:41:55;5.97;;;3.22;;
39880;SDS011;25554;44.954;10.068;2023-07-30T13:44:22;3.90;;;3.40;;
39880;SDS011;25554;44.954;10.068;2023-07-30T13:46:48;5.55;;;3.50;;
39880;SDS011;25554;44.954;10.068;2023-07-30T13:49:16;4.18;;;3.83;;
39880;SDS011;25554;44.954;10.068;2023-07-30T13:51:42;3.95;;;3.58;;
39880;SDS011;25554;44.954;10.068;2023-07-30T13:54:09;5.22;;;3.10;;
39880;SDS011;25554;44.954;10.068;2023-07-30T13:56:35;5.10;;;3.38;;
39880;SDS011;25554;44.954;10.068;2023-07-30T13:59:04;4.43;;;3.13;;
39880;SDS011;25554;44.954;10.068;2023-07-30T14:01:31;4.32;;;3.35;;
39880;SDS011;25554;44.954;10.068;2023-07-30T14:03:57;3.38;;;3.08;;
39880;SDS011;25554;44.954;10.068;2023-07-30T14:06:24;3.00;;;2.72;;
39880;SDS011;25554;44.954;10.068;2023-07-30T14:08:50;3.95;;;3.03;;
39880;SDS011;25554;44.954;10.068;2023-07-30T14:11:17;3.42;;;3.13;;
39880;SDS011;25554;44.954;10.068;2023-07-30T14:13:43;14.25;;;5.97;;
39880;SDS011;25554;44.954;10.068;2023-07-30T14:16:10;7.22;;;6.25;;
39880;SDS011;25554;44.954;10.068;2023-07-30T14:18:36;3.65;;;2.90;;
39880;SDS011;25554;44.954;10.068;2023-07-30T14:21:04;3.40;;;2.58;;
39880;SDS011;25554;44.954;10.068;2023-07-30T14:23:31;3.42;;;3.05;;
39880;SDS011;25554;44.954;10.068;2023-07-30T14:25:58;2.90;;;2.60;;
39880;SDS011;25554;44.954;10.068;2023-07-30T14:28:24;6.03;;;3.38;;
39880;SDS011;25554;44.954;10.068;2023-07-30T14:30:51;4.80;;;2.97;;
39880;SDS011;25554;44.954;10.068;2023-07-30T14:33:17;4.65;;;3.40;;
39880;SDS011;25554;44.954;10.068;2023-07-30T14:35:44;4.35;;;3.95;;
39880;SDS011;25554;44.954;10.068;2023-07-30T14:38:11;4.82;;;3.38;;
39880;SDS011;25554;44.954;10.068;2023-07-30T14:40:38;6.65;;;3.65;;
39880;SDS011;25554;44.954;10.068;2023-07-30T14:43:04;4.93;;;3.35;;
39880;SDS011;25554;44.954;10.068;2023-07-30T14:45:31;2.92;;;2.55;;
39880;SDS011;25554;44.954;10.068;2023-07-30T14:47:58;6.28;;;3.65;;
39880;SDS011;25554;44.954;10.068;2023-07-30T14:50:24;5.35;;;3.03;;
39880;SDS011;25554;44.954;10.068;2023-07-30T14:52:51;3.55;;;3.25;;
39880;SDS011;25554;44.954;10.068;2023-07-30T14:55:17;3.90;;;2.97;;
39880;SDS011;25554;44.954;10.068;2023-07-30T14:57:44;3.80;;;3.28;;
39880;SDS011;25554;44.954;10.068;2023-07-30T15:00:10;4.30;;;3.70;;
39880;SDS011;25554;44.954;10.068;2023-07-30T15:02:39;4.63;;;3.22;;
39880;SDS011;25554;44.954;10.068;2023-07-30T15:05:06;4.43;;;3.40;;
39880;SDS011;25554;44.954;10.068;2023-07-30T15:07:33;5.38;;;3.25;;
39880;SDS011;25554;44.954;10.068;2023-07-30T15:09:59;6.50;;;3.22;;
39880;SDS011;25554;44.954;10.068;2023-07-30T15:12:26;4.40;;;3.83;;
39880;SDS011;25554;44.954;10.068;2023-07-30T15:14:52;2.88;;;2.42;;
39880;SDS011;25554;44.954;10.068;2023-07-30T15:17:19;6.82;;;3.05;;
39880;SDS011;25554;44.954;10.068;2023-07-30T15:19:46;4.75;;;2.83;;
39880;SDS011;25554;44.954;10.068;2023-07-30T15:22:13;3.58;;;3.20;;
39880;SDS011;25554;44.954;10.068;2023-07-30T15:24:40;3.53;;;3.00;;
39880;SDS011;25554;44.954;10.068;2023-07-30T15:27:06;4.63;;;2.88;;
39880;SDS011;25554;44.954;10.068;2023-07-30T15:29:33;6.13;;;3.10;;
39880;SDS011;25554;44.954;10.068;2023-07-30T15:31:59;3.92;;;3.63;;
39880;SDS011;25554;44.954;10.068;2023-07-30T15:34:27;3.70;;;3.35;;
39880;SDS011;25554;44.954;10.068;2023-07-30T15:36:54;2.83;;;2.58;;
39880;SDS011;25554;44.954;10.068;2023-07-30T15:39:22;8.23;;;3.42;;
39880;SDS011;25554;44.954;10.068;2023-07-30T15:41:48;6.93;;;4.00;;
39880;SDS011;25554;44.954;10.068;2023-07-30T15:44:15;4.57;;;3.20;;
39880;SDS011;25554;44.954;10.068;2023-07-30T15:46:44;3.22;;;2.92;;
39880;SDS011;25554;44.954;10.068;2023-07-30T15:49:14;4.03;;;3.28;;
39880;SDS011;25554;44.954;10.068;2023-07-30T15:51:40;4.78;;;3.80;;